Riga, Michigan
Current Conditions -  °F | °C
As of 6:15 AM on Thursday 23 Oct 2014 (Local Time) from KDUH Reporting Station
Haze Haze  
Wind Chill: 34°   Ceiling: 700
Heat Index: 34°   Visibility: 1mi
Dew Point: 32°   Wind: 0mph
Humidity: 93%   Direction: NA
Pressure: 30.25"   Gusts: NA
Location:  41.81°N, 83.82°W
Report Text: KDUH 231015Z AUTO 00000KT 1SM BR VV007 01/00 A3025 RMK AO2
Loading
Personal Weather Stations






























Interactive Weather Map
Tropical Storm Tracking
New forecast layout! Learn more

10-Day Weather Forecast

Advertisements
Track Severe Weather on mobile